sensor_id;sensor_type;location;lat;lon;timestamp;temperature;humidity
36446;DHT22;22472;50.848;-1.216;2022-08-18T00:01:09;18.40;99.90
36446;DHT22;22472;50.848;-1.216;2022-08-18T00:03:36;18.40;99.90
36446;DHT22;22472;50.848;-1.216;2022-08-18T00:06:06;18.30;99.90
36446;DHT22;22472;50.848;-1.216;2022-08-18T00:08:33;18.30;99.90
36446;DHT22;22472;50.848;-1.216;2022-08-18T00:11:00;18.30;99.90
36446;DHT22;22472;50.848;-1.216;2022-08-18T00:13:28;18.20;99.90
36446;DHT22;22472;50.848;-1.216;2022-08-18T00:15:55;18.30;99.90
36446;DHT22;22472;50.848;-1.216;2022-08-18T00:18:22;18.20;99.90
36446;DHT22;22472;50.848;-1.216;2022-08-18T00:20:49;18.20;99.90
36446;DHT22;22472;50.848;-1.216;2022-08-18T00:23:16;18.10;99.90
36446;DHT22;22472;50.848;-1.216;2022-08-18T00:25:43;18.00;99.90
36446;DHT22;22472;50.848;-1.216;2022-08-18T00:28:11;18.10;99.90
36446;DHT22;22472;50.848;-1.216;2022-08-18T00:30:39;18.00;99.90
36446;DHT22;22472;50.848;-1.216;2022-08-18T00:33:06;18.00;99.90
36446;DHT22;22472;50.848;-1.216;2022-08-18T00:35:36;18.00;99.90
36446;DHT22;22472;50.848;-1.216;2022-08-18T00:38:06;18.00;99.90
36446;DHT22;22472;50.848;-1.216;2022-08-18T00:40:36;17.90;99.90
36446;DHT22;22472;50.848;-1.216;2022-08-18T00:43:06;17.90;99.90
36446;DHT22;22472;50.848;-1.216;2022-08-18T00:45:36;17.90;99.90
36446;DHT22;22472;50.848;-1.216;2022-08-18T00:48:07;17.90;99.90
36446;DHT22;22472;50.848;-1.216;2022-08-18T00:50:39;17.90;99.90
36446;DHT22;22472;50.848;-1.216;2022-08-18T00:53:11;17.90;99.90
36446;DHT22;22472;50.848;-1.216;2022-08-18T00:55:39;17.90;99.90
36446;DHT22;22472;50.848;-1.216;2022-08-18T00:58:14;17.90;99.90
36446;DHT22;22472;50.848;-1.216;2022-08-18T01:00:44;17.90;99.90
36446;DHT22;22472;50.848;-1.216;2022-08-18T01:03:14;17.90;99.90
36446;DHT22;22472;50.848;-1.216;2022-08-18T01:05:47;18.00;99.90
36446;DHT22;22472;50.848;-1.216;2022-08-18T01:08:16;18.00;99.90
36446;DHT22;22472;50.848;-1.216;2022-08-18T01:10:43;18.00;99.90
36446;DHT22;22472;50.848;-1.216;2022-08-18T01:13:11;18.10;99.90
36446;DHT22;22472;50.848;-1.216;2022-08-18T01:15:38;18.10;99.90
36446;DHT22;22472;50.848;-1.216;2022-08-18T01:18:09;18.10;99.90
36446;DHT22;22472;50.848;-1.216;2022-08-18T01:20:59;18.20;99.90
36446;DHT22;22472;50.848;-1.216;2022-08-18T01:23:49;18.20;99.90
36446;DHT22;22472;50.848;-1.216;2022-08-18T01:26:19;18.20;99.90
36446;DHT22;22472;50.848;-1.216;2022-08-18T01:28:48;18.20;99.90
36446;DHT22;22472;50.848;-1.216;2022-08-18T01:31:30;18.20;99.90
36446;DHT22;22472;50.848;-1.216;2022-08-18T01:33:59;18.20;99.90
36446;DHT22;22472;50.848;-1.216;2022-08-18T01:36:27;18.20;99.90
36446;DHT22;22472;50.848;-1.216;2022-08-18T01:38:56;18.20;99.90
36446;DHT22;22472;50.848;-1.216;2022-08-18T01:41:23;18.20;99.90
36446;DHT22;22472;50.848;-1.216;2022-08-18T01:43:50;18.20;99.90
36446;DHT22;22472;50.848;-1.216;2022-08-18T01:46:18;18.20;99.90
36446;DHT22;22472;50.848;-1.216;2022-08-18T01:48:47;18.30;99.90
36446;DHT22;22472;50.848;-1.216;2022-08-18T01:51:15;18.30;99.90
36446;DHT22;22472;50.848;-1.216;2022-08-18T01:53:45;18.30;99.90
36446;DHT22;22472;50.848;-1.216;2022-08-18T01:56:14;18.20;99.90
36446;DHT22;22472;50.848;-1.216;2022-08-18T01:58:43;18.30;99.90
36446;DHT22;22472;50.848;-1.216;2022-08-18T02:01:13;18.30;99.90
36446;DHT22;22472;50.848;-1.216;2022-08-18T02:03:43;18.30;99.90
36446;DHT22;22472;50.848;-1.216;2022-08-18T02:06:15;18.40;99.90
36446;DHT22;22472;50.848;-1.216;2022-08-18T02:08:43;18.40;99.90
36446;DHT22;22472;50.848;-1.216;2022-08-18T02:11:10;18.40;99.90
36446;DHT22;22472;50.848;-1.216;2022-08-18T02:13:39;18.40;99.90
36446;DHT22;22472;50.848;-1.216;2022-08-18T02:16:07;18.40;99.90
36446;DHT22;22472;50.848;-1.216;2022-08-18T02:18:35;18.40;99.90
36446;DHT22;22472;50.848;-1.216;2022-08-18T02:21:07;18.40;99.90
36446;DHT22;22472;50.848;-1.216;2022-08-18T02:23:34;18.40;99.90
36446;DHT22;22472;50.848;-1.216;2022-08-18T02:26:04;18.30;99.90
36446;DHT22;22472;50.848;-1.216;2022-08-18T02:28:31;18.30;99.90
36446;DHT22;22472;50.848;-1.216;2022-08-18T02:31:04;18.30;99.90
36446;DHT22;22472;50.848;-1.216;2022-08-18T02:33:32;18.30;99.90
36446;DHT22;22472;50.848;-1.216;2022-08-18T02:35:59;18.30;99.90
36446;DHT22;22472;50.848;-1.216;2022-08-18T02:38:27;18.20;99.90
36446;DHT22;22472;50.848;-1.216;2022-08-18T02:40:55;18.20;99.90
36446;DHT22;22472;50.848;-1.216;2022-08-18T02:43:22;18.20;99.90
36446;DHT22;22472;50.848;-1.216;2022-08-18T02:45:49;18.10;99.90
36446;DHT22;22472;50.848;-1.216;2022-08-18T02:48:18;18.10;99.90
36446;DHT22;22472;50.848;-1.216;2022-08-18T02:50:47;18.10;99.90
36446;DHT22;22472;50.848;-1.216;2022-08-18T02:53:14;18.10;99.90
36446;DHT22;22472;50.848;-1.216;2022-08-18T02:55:47;18.10;99.90
36446;DHT22;22472;50.848;-1.216;2022-08-18T02:58:14;18.00;99.90
36446;DHT22;22472;50.848;-1.216;2022-08-18T03:00:44;18.00;99.90
36446;DHT22;22472;50.848;-1.216;2022-08-18T03:03:12;17.90;99.90
36446;DHT22;22472;50.848;-1.216;2022-08-18T03:05:40;17.90;99.90
36446;DHT22;22472;50.848;-1.216;2022-08-18T03:08:07;18.00;99.90
36446;DHT22;22472;50.848;-1.216;2022-08-18T03:10:35;18.00;99.90
36446;DHT22;22472;50.848;-1.216;2022-08-18T03:13:02;17.90;99.90
36446;DHT22;22472;50.848;-1.216;2022-08-18T03:15:29;17.90;99.90
36446;DHT22;22472;50.848;-1.216;2022-08-18T03:17:56;17.90;99.90
36446;DHT22;22472;50.848;-1.216;2022-08-18T03:20:24;17.90;99.90
36446;DHT22;22472;50.848;-1.216;2022-08-18T03:22:53;17.90;99.90
36446;DHT22;22472;50.848;-1.216;2022-08-18T03:25:20;17.90;99.90
36446;DHT22;22472;50.848;-1.216;2022-08-18T03:27:47;17.90;99.90
36446;DHT22;22472;50.848;-1.216;2022-08-18T03:30:14;17.80;99.90
36446;DHT22;22472;50.848;-1.216;2022-08-18T03:32:41;17.80;99.90
36446;DHT22;22472;50.848;-1.216;2022-08-18T03:35:08;17.80;99.90
36446;DHT22;22472;50.848;-1.216;2022-08-18T03:37:35;17.80;99.90
36446;DHT22;22472;50.848;-1.216;2022-08-18T03:40:04;17.80;99.90
36446;DHT22;22472;50.848;-1.216;2022-08-18T03:42:31;17.80;99.90
36446;DHT22;22472;50.848;-1.216;2022-08-18T03:44:58;17.70;99.90
36446;DHT22;22472;50.848;-1.216;2022-08-18T03:47:25;17.70;99.90
36446;DHT22;22472;50.848;-1.216;2022-08-18T03:49:53;17.70;99.90
36446;DHT22;22472;50.848;-1.216;2022-08-18T03:52:19;17.70;99.90
36446;DHT22;22472;50.848;-1.216;2022-08-18T03:54:48;17.70;99.90
36446;DHT22;22472;50.848;-1.216;2022-08-18T03:57:16;17.70;99.90
36446;DHT22;22472;50.848;-1.216;2022-08-18T03:59:43;17.70;99.90
36446;DHT22;22472;50.848;-1.216;2022-08-18T04:02:10;17.70;99.90
36446;DHT22;22472;50.848;-1.216;2022-08-18T04:04:37;17.70;99.90
36446;DHT22;22472;50.848;-1.216;2022-08-18T04:07:07;17.70;99.90
36446;DHT22;22472;50.848;-1.216;2022-08-18T04:09:35;17.70;99.90
36446;DHT22;22472;50.848;-1.216;2022-08-18T04:12:05;17.60;99.90
36446;DHT22;22472;50.848;-1.216;2022-08-18T04:14:39;17.60;99.90
36446;DHT22;22472;50.848;-1.216;2022-08-18T04:17:06;17.60;99.90
36446;DHT22;22472;50.848;-1.216;2022-08-18T04:19:34;17.60;99.90
36446;DHT22;22472;50.848;-1.216;2022-08-18T04:22:03;17.60;99.90
36446;DHT22;22472;50.848;-1.216;2022-08-18T04:24:31;17.60;99.90
36446;DHT22;22472;50.848;-1.216;2022-08-18T04:27:03;17.50;99.90
36446;DHT22;22472;50.848;-1.216;2022-08-18T04:29:30;17.50;99.90
36446;DHT22;22472;50.848;-1.216;2022-08-18T04:32:01;17.40;99.90
36446;DHT22;22472;50.848;-1.216;2022-08-18T04:34:30;17.40;99.90
36446;DHT22;22472;50.848;-1.216;2022-08-18T04:36:59;17.40;99.90
36446;DHT22;22472;50.848;-1.216;2022-08-18T04:39:27;17.40;99.90
36446;DHT22;22472;50.848;-1.216;2022-08-18T04:41:54;17.40;99.90
36446;DHT22;22472;50.848;-1.216;2022-08-18T04:44:24;17.40;99.90
36446;DHT22;22472;50.848;-1.216;2022-08-18T04:46:52;17.40;99.90
36446;DHT22;22472;50.848;-1.216;2022-08-18T04:49:22;17.40;99.90
36446;DHT22;22472;50.848;-1.216;2022-08-18T04:51:51;17.40;99.90
36446;DHT22;22472;50.848;-1.216;2022-08-18T04:54:38;17.40;99.90
36446;DHT22;22472;50.848;-1.216;2022-08-18T04:57:07;17.40;99.90
36446;DHT22;22472;50.848;-1.216;2022-08-18T04:59:35;17.40;99.90
36446;DHT22;22472;50.848;-1.216;2022-08-18T05:02:03;17.40;99.90
36446;DHT22;22472;50.848;-1.216;2022-08-18T05:04:33;17.40;99.90
36446;DHT22;22472;50.848;-1.216;2022-08-18T05:07:03;17.30;99.90
36446;DHT22;22472;50.848;-1.216;2022-08-18T05:09:30;17.30;99.90
36446;DHT22;22472;50.848;-1.216;2022-08-18T05:11:57;17.30;99.90
36446;DHT22;22472;50.848;-1.216;2022-08-18T05:14:24;17.40;99.90
36446;DHT22;22472;50.848;-1.216;2022-08-18T05:16:52;17.40;99.90
36446;DHT22;22472;50.848;-1.216;2022-08-18T05:19:20;17.40;99.90
36446;DHT22;22472;50.848;-1.216;2022-08-18T05:21:49;17.40;99.90
36446;DHT22;22472;50.848;-1.216;2022-08-18T05:24:18;17.40;99.90
36446;DHT22;22472;50.848;-1.216;2022-08-18T05:26:46;17.50;99.90
36446;DHT22;22472;50.848;-1.216;2022-08-18T05:29:14;17.50;99.90
36446;DHT22;22472;50.848;-1.216;2022-08-18T05:31:41;17.50;99.90
36446;DHT22;22472;50.848;-1.216;2022-08-18T05:34:08;17.60;99.90
36446;DHT22;22472;50.848;-1.216;2022-08-18T05:36:48;17.60;99.90
36446;DHT22;22472;50.848;-1.216;2022-08-18T05:39:26;17.60;99.90
36446;DHT22;22472;50.848;-1.216;2022-08-18T05:42:02;17.60;99.90
36446;DHT22;22472;50.848;-1.216;2022-08-18T05:44:35;17.70;99.90
36446;DHT22;22472;50.848;-1.216;2022-08-18T05:47:07;17.70;99.90
36446;DHT22;22472;50.848;-1.216;2022-08-18T05:49:37;17.70;99.90
36446;DHT22;22472;50.848;-1.216;2022-08-18T05:52:07;17.80;99.90
36446;DHT22;22472;50.848;-1.216;2022-08-18T05:54:39;17.80;99.90
36446;DHT22;22472;50.848;-1.216;2022-08-18T05:57:27;17.80;99.90
36446;DHT22;22472;50.848;-1.216;2022-08-18T05:59:57;17.90;99.90
36446;DHT22;22472;50.848;-1.216;2022-08-18T06:02:31;18.00;99.90
36446;DHT22;22472;50.848;-1.216;2022-08-18T06:05:02;18.00;99.90
36446;DHT22;22472;50.848;-1.216;2022-08-18T06:07:35;18.00;99.90
36446;DHT22;22472;50.848;-1.216;2022-08-18T06:10:07;18.10;99.90
36446;DHT22;22472;50.848;-1.216;2022-08-18T06:12:38;18.20;99.90
36446;DHT22;22472;50.848;-1.216;2022-08-18T06:15:12;18.40;99.90
36446;DHT22;22472;50.848;-1.216;2022-08-18T06:18:02;18.50;99.90
36446;DHT22;22472;50.848;-1.216;2022-08-18T06:20:41;18.60;99.90
36446;DHT22;22472;50.848;-1.216;2022-08-18T06:23:22;18.60;99.90
36446;DHT22;22472;50.848;-1.216;2022-08-18T06:26:02;18.70;99.90
36446;DHT22;22472;50.848;-1.216;2022-08-18T06:28:43;18.80;99.90
36446;DHT22;22472;50.848;-1.216;2022-08-18T06:31:15;18.80;99.90
36446;DHT22;22472;50.848;-1.216;2022-08-18T06:33:49;18.80;99.90
36446;DHT22;22472;50.848;-1.216;2022-08-18T06:36:37;18.90;99.90
36446;DHT22;22472;50.848;-1.216;2022-08-18T06:39:14;18.90;99.90
36446;DHT22;22472;50.848;-1.216;2022-08-18T06:41:46;18.90;99.90
36446;DHT22;22472;50.848;-1.216;2022-08-18T06:44:19;19.00;99.90
36446;DHT22;22472;50.848;-1.216;2022-08-18T06:46:49;19.10;99.90
36446;DHT22;22472;50.848;-1.216;2022-08-18T06:49:30;19.20;99.90
36446;DHT22;22472;50.848;-1.216;2022-08-18T06:52:22;19.30;99.90
36446;DHT22;22472;50.848;-1.216;2022-08-18T06:54:52;19.50;99.90
36446;DHT22;22472;50.848;-1.216;2022-08-18T06:57:27;19.70;99.90
36446;DHT22;22472;50.848;-1.216;2022-08-18T06:59:57;19.80;99.90
36446;DHT22;22472;50.848;-1.216;2022-08-18T07:05:23;20.00;99.90
36446;DHT22;22472;50.848;-1.216;2022-08-18T07:08:07;20.20;99.90
36446;DHT22;22472;50.848;-1.216;2022-08-18T07:10:38;20.40;99.90
36446;DHT22;22472;50.848;-1.216;2022-08-18T07:13:20;20.40;99.90
36446;DHT22;22472;50.848;-1.216;2022-08-18T07:15:48;20.60;99.90
36446;DHT22;22472;50.848;-1.216;2022-08-18T07:18:22;20.70;99.90
36446;DHT22;22472;50.848;-1.216;2022-08-18T07:20:52;20.80;99.90
36446;DHT22;22472;50.848;-1.216;2022-08-18T07:23:26;21.00;99.90
36446;DHT22;22472;50.848;-1.216;2022-08-18T07:26:06;21.30;99.90
36446;DHT22;22472;50.848;-1.216;2022-08-18T07:28:38;21.50;99.90
36446;DHT22;22472;50.848;-1.216;2022-08-18T07:31:19;21.80;99.90
36446;DHT22;22472;50.848;-1.216;2022-08-18T07:33:54;22.20;99.90
36446;DHT22;22472;50.848;-1.216;2022-08-18T07:36:26;22.70;99.90
36446;DHT22;22472;50.848;-1.216;2022-08-18T07:38:57;23.00;99.90
36446;DHT22;22472;50.848;-1.216;2022-08-18T07:41:29;23.30;99.90
36446;DHT22;22472;50.848;-1.216;2022-08-18T07:44:09;23.50;99.90
36446;DHT22;22472;50.848;-1.216;2022-08-18T07:46:42;23.40;99.90
36446;DHT22;22472;50.848;-1.216;2022-08-18T07:49:17;23.60;99.90
36446;DHT22;22472;50.848;-1.216;2022-08-18T07:51:47;23.70;99.90
36446;DHT22;22472;50.848;-1.216;2022-08-18T07:54:21;23.70;99.90
36446;DHT22;22472;50.848;-1.216;2022-08-18T07:57:00;23.70;99.90
36446;DHT22;22472;50.848;-1.216;2022-08-18T07:59:34;23.40;99.90
36446;DHT22;22472;50.848;-1.216;2022-08-18T08:02:16;23.10;99.90
36446;DHT22;22472;50.848;-1.216;2022-08-18T08:04:48;22.90;99.90
36446;DHT22;22472;50.848;-1.216;2022-08-18T08:07:23;22.70;99.90
36446;DHT22;22472;50.848;-1.216;2022-08-18T08:09:57;22.50;99.90
36446;DHT22;22472;50.848;-1.216;2022-08-18T08:12:34;22.50;99.90
36446;DHT22;22472;50.848;-1.216;2022-08-18T08:15:11;22.50;99.90
36446;DHT22;22472;50.848;-1.216;2022-08-18T08:17:48;22.40;99.90
36446;DHT22;22472;50.848;-1.216;2022-08-18T08:20:21;22.50;99.90
36446;DHT22;22472;50.848;-1.216;2022-08-18T08:23:00;22.80;99.90
36446;DHT22;22472;50.848;-1.216;2022-08-18T08:25:36;23.30;99.90
36446;DHT22;22472;50.848;-1.216;2022-08-18T08:28:19;23.40;99.90
36446;DHT22;22472;50.848;-1.216;2022-08-18T08:30:58;23.70;99.90
36446;DHT22;22472;50.848;-1.216;2022-08-18T08:33:32;23.80;99.90
36446;DHT22;22472;50.848;-1.216;2022-08-18T08:36:06;23.80;99.90
36446;DHT22;22472;50.848;-1.216;2022-08-18T08:38:41;24.10;99.90
36446;DHT22;22472;50.848;-1.216;2022-08-18T08:41:13;24.50;99.90
36446;DHT22;22472;50.848;-1.216;2022-08-18T08:43:48;24.70;99.90
36446;DHT22;22472;50.848;-1.216;2022-08-18T08:46:21;24.10;99.90
36446;DHT22;22472;50.848;-1.216;2022-08-18T08:48:53;24.40;99.90
36446;DHT22;22472;50.848;-1.216;2022-08-18T08:51:34;24.80;99.90
36446;DHT22;22472;50.848;-1.216;2022-08-18T08:54:07;24.60;99.90
36446;DHT22;22472;50.848;-1.216;2022-08-18T08:56:43;24.20;99.90
36446;DHT22;22472;50.848;-1.216;2022-08-18T08:59:12;24.40;99.90
36446;DHT22;22472;50.848;-1.216;2022-08-18T09:01:47;24.90;99.90
36446;DHT22;22472;50.848;-1.216;2022-08-18T09:04:30;24.70;99.90
36446;DHT22;22472;50.848;-1.216;2022-08-18T09:07:10;25.20;99.90
36446;DHT22;22472;50.848;-1.216;2022-08-18T09:13:01;25.50;99.90
36446;DHT22;22472;50.848;-1.216;2022-08-18T09:15:43;25.60;99.90
36446;DHT22;22472;50.848;-1.216;2022-08-18T09:18:32;25.80;99.90
36446;DHT22;22472;50.848;-1.216;2022-08-18T09:21:18;26.00;99.90
36446;DHT22;22472;50.848;-1.216;2022-08-18T09:23:50;26.90;99.90
36446;DHT22;22472;50.848;-1.216;2022-08-18T09:26:25;26.40;99.90
36446;DHT22;22472;50.848;-1.216;2022-08-18T09:28:57;26.90;99.90
36446;DHT22;22472;50.848;-1.216;2022-08-18T09:31:26;27.00;99.90
36446;DHT22;22472;50.848;-1.216;2022-08-18T09:34:19;27.20;99.90
36446;DHT22;22472;50.848;-1.216;2022-08-18T09:37:02;27.00;99.90
36446;DHT22;22472;50.848;-1.216;2022-08-18T09:39:33;26.70;99.90
36446;DHT22;22472;50.848;-1.216;2022-08-18T09:42:29;27.10;99.90
36446;DHT22;22472;50.848;-1.216;2022-08-18T09:44:59;27.30;99.90
36446;DHT22;22472;50.848;-1.216;2022-08-18T09:47:56;27.80;99.90
36446;DHT22;22472;50.848;-1.216;2022-08-18T09:50:38;28.10;99.90
36446;DHT22;22472;50.848;-1.216;2022-08-18T09:53:36;27.90;99.90
36446;DHT22;22472;50.848;-1.216;2022-08-18T09:56:04;27.80;99.90
36446;DHT22;22472;50.848;-1.216;2022-08-18T09:58:50;28.40;99.90
36446;DHT22;22472;50.848;-1.216;2022-08-18T10:01:30;28.90;99.90
36446;DHT22;22472;50.848;-1.216;2022-08-18T10:04:25;28.90;99.90
36446;DHT22;22472;50.848;-1.216;2022-08-18T10:07:14;28.70;99.90
36446;DHT22;22472;50.848;-1.216;2022-08-18T10:09:49;29.40;99.90
36446;DHT22;22472;50.848;-1.216;2022-08-18T10:12:57;28.40;99.90
36446;DHT22;22472;50.848;-1.216;2022-08-18T10:15:38;27.80;99.90
36446;DHT22;22472;50.848;-1.216;2022-08-18T10:21:08;28.70;99.90
36446;DHT22;22472;50.848;-1.216;2022-08-18T10:23:58;28.40;99.90
36446;DHT22;22472;50.848;-1.216;2022-08-18T10:27:06;28.00;99.90
36446;DHT22;22472;50.848;-1.216;2022-08-18T10:29:48;27.70;99.90
36446;DHT22;22472;50.848;-1.216;2022-08-18T10:38:39;26.90;99.90
36446;DHT22;22472;50.848;-1.216;2022-08-18T10:41:18;26.70;99.90
36446;DHT22;22472;50.848;-1.216;2022-08-18T10:43:47;26.50;99.90
36446;DHT22;22472;50.848;-1.216;2022-08-18T10:46:20;26.40;99.90
36446;DHT22;22472;50.848;-1.216;2022-08-18T10:49:03;26.70;99.90
36446;DHT22;22472;50.848;-1.216;2022-08-18T10:51:47;27.10;99.90
36446;DHT22;22472;50.848;-1.216;2022-08-18T10:54:22;27.10;99.90
36446;DHT22;22472;50.848;-1.216;2022-08-18T10:57:02;26.30;99.90
36446;DHT22;22472;50.848;-1.216;2022-08-18T10:59:37;26.10;99.90
36446;DHT22;22472;50.848;-1.216;2022-08-18T11:02:20;25.90;99.90
36446;DHT22;22472;50.848;-1.216;2022-08-18T11:04:54;25.90;99.90
36446;DHT22;22472;50.848;-1.216;2022-08-18T11:07:23;26.20;99.90
36446;DHT22;22472;50.848;-1.216;2022-08-18T11:09:52;26.00;99.90
36446;DHT22;22472;50.848;-1.216;2022-08-18T11:12:45;26.00;99.90
36446;DHT22;22472;50.848;-1.216;2022-08-18T11:15:18;26.90;99.90
36446;DHT22;22472;50.848;-1.216;2022-08-18T11:17:59;26.60;99.90
36446;DHT22;22472;50.848;-1.216;2022-08-18T11:20:29;27.10;99.90
36446;DHT22;22472;50.848;-1.216;2022-08-18T11:22:58;27.30;99.90
36446;DHT22;22472;50.848;-1.216;2022-08-18T11:25:29;27.90;99.90
36446;DHT22;22472;50.848;-1.216;2022-08-18T11:27:59;28.30;99.90
36446;DHT22;22472;50.848;-1.216;2022-08-18T11:30:29;28.80;99.90
36446;DHT22;22472;50.848;-1.216;2022-08-18T11:32:58;28.50;99.90
36446;DHT22;22472;50.848;-1.216;2022-08-18T11:35:29;28.80;99.90
36446;DHT22;22472;50.848;-1.216;2022-08-18T11:37:59;29.00;99.90
36446;DHT22;22472;50.848;-1.216;2022-08-18T11:40:36;29.30;99.90
36446;DHT22;22472;50.848;-1.216;2022-08-18T11:43:11;29.40;99.90
36446;DHT22;22472;50.848;-1.216;2022-08-18T11:45:51;29.80;99.90
36446;DHT22;22472;50.848;-1.216;2022-08-18T11:48:19;30.10;99.90
36446;DHT22;22472;50.848;-1.216;2022-08-18T11:50:49;29.70;99.90
36446;DHT22;22472;50.848;-1.216;2022-08-18T11:53:36;28.90;99.90
36446;DHT22;22472;50.848;-1.216;2022-08-18T11:56:13;28.60;99.90
36446;DHT22;22472;50.848;-1.216;2022-08-18T11:58:43;28.50;99.90
36446;DHT22;22472;50.848;-1.216;2022-08-18T12:03:55;28.90;99.90
36446;DHT22;22472;50.848;-1.216;2022-08-18T12:06:25;29.10;99.90
36446;DHT22;22472;50.848;-1.216;2022-08-18T12:08:57;29.20;99.90
36446;DHT22;22472;50.848;-1.216;2022-08-18T12:11:27;29.10;99.90
36446;DHT22;22472;50.848;-1.216;2022-08-18T12:14:03;29.30;99.90
36446;DHT22;22472;50.848;-1.216;2022-08-18T12:16:35;28.80;99.90
36446;DHT22;22472;50.848;-1.216;2022-08-18T12:19:03;28.50;99.90
36446;DHT22;22472;50.848;-1.216;2022-08-18T12:21:30;28.50;99.90
36446;DHT22;22472;50.848;-1.216;2022-08-18T12:23:58;28.80;99.90
36446;DHT22;22472;50.848;-1.216;2022-08-18T12:26:25;29.20;99.90
36446;DHT22;22472;50.848;-1.216;2022-08-18T12:28:52;29.70;99.90
36446;DHT22;22472;50.848;-1.216;2022-08-18T12:31:21;29.80;99.90
36446;DHT22;22472;50.848;-1.216;2022-08-18T12:33:48;29.90;99.90
36446;DHT22;22472;50.848;-1.216;2022-08-18T12:36:14;29.90;99.90
36446;DHT22;22472;50.848;-1.216;2022-08-18T12:38:43;30.00;99.90
36446;DHT22;22472;50.848;-1.216;2022-08-18T12:41:11;30.30;99.90
36446;DHT22;22472;50.848;-1.216;2022-08-18T12:43:40;30.20;99.90
36446;DHT22;22472;50.848;-1.216;2022-08-18T12:46:07;30.30;99.90
36446;DHT22;22472;50.848;-1.216;2022-08-18T12:48:36;30.60;99.90
36446;DHT22;22472;50.848;-1.216;2022-08-18T12:51:04;30.70;99.90
36446;DHT22;22472;50.848;-1.216;2022-08-18T12:53:32;30.60;99.90
36446;DHT22;22472;50.848;-1.216;2022-08-18T12:56:00;30.30;99.90
36446;DHT22;22472;50.848;-1.216;2022-08-18T12:58:27;30.70;99.90
36446;DHT22;22472;50.848;-1.216;2022-08-18T13:00:54;30.50;99.90
36446;DHT22;22472;50.848;-1.216;2022-08-18T13:03:21;29.80;99.90
36446;DHT22;22472;50.848;-1.216;2022-08-18T13:05:50;30.00;99.90
36446;DHT22;22472;50.848;-1.216;2022-08-18T13:08:18;30.00;99.90
36446;DHT22;22472;50.848;-1.216;2022-08-18T13:10:46;29.30;99.90
36446;DHT22;22472;50.848;-1.216;2022-08-18T13:13:14;28.80;99.90
36446;DHT22;22472;50.848;-1.216;2022-08-18T13:15:45;28.80;99.90
36446;DHT22;22472;50.848;-1.216;2022-08-18T13:18:13;29.40;99.90
36446;DHT22;22472;50.848;-1.216;2022-08-18T13:20:41;29.40;99.90
36446;DHT22;22472;50.848;-1.216;2022-08-18T13:23:09;29.00;99.90
36446;DHT22;22472;50.848;-1.216;2022-08-18T13:25:36;28.60;99.90
36446;DHT22;22472;50.848;-1.216;2022-08-18T13:28:06;29.10;99.90
36446;DHT22;22472;50.848;-1.216;2022-08-18T13:30:33;29.20;99.90
36446;DHT22;22472;50.848;-1.216;2022-08-18T13:33:00;29.00;99.90
36446;DHT22;22472;50.848;-1.216;2022-08-18T13:35:28;29.30;99.90
36446;DHT22;22472;50.848;-1.216;2022-08-18T13:37:55;29.20;99.90
36446;DHT22;22472;50.848;-1.216;2022-08-18T13:40:23;29.30;99.90
36446;DHT22;22472;50.848;-1.216;2022-08-18T13:42:50;29.20;99.90
36446;DHT22;22472;50.848;-1.216;2022-08-18T13:45:20;28.90;99.90
36446;DHT22;22472;50.848;-1.216;2022-08-18T13:47:47;29.00;99.90
36446;DHT22;22472;50.848;-1.216;2022-08-18T13:50:16;28.90;99.90
36446;DHT22;22472;50.848;-1.216;2022-08-18T13:52:43;28.90;99.90
36446;DHT22;22472;50.848;-1.216;2022-08-18T13:55:13;28.60;99.90
36446;DHT22;22472;50.848;-1.216;2022-08-18T13:57:43;28.20;99.90
36446;DHT22;22472;50.848;-1.216;2022-08-18T14:00:14;28.20;99.90
36446;DHT22;22472;50.848;-1.216;2022-08-18T14:02:42;28.40;99.90
36446;DHT22;22472;50.848;-1.216;2022-08-18T14:05:09;28.30;99.90
36446;DHT22;22472;50.848;-1.216;2022-08-18T14:07:36;28.10;99.90
36446;DHT22;22472;50.848;-1.216;2022-08-18T14:10:05;28.20;99.90
36446;DHT22;22472;50.848;-1.216;2022-08-18T14:12:34;28.00;99.90
36446;DHT22;22472;50.848;-1.216;2022-08-18T14:15:06;28.10;99.90
36446;DHT22;22472;50.848;-1.216;2022-08-18T14:17:33;28.20;99.90
36446;DHT22;22472;50.848;-1.216;2022-08-18T14:20:01;27.90;99.90
36446;DHT22;22472;50.848;-1.216;2022-08-18T14:22:45;27.90;99.90
36446;DHT22;22472;50.848;-1.216;2022-08-18T14:25:30;27.70;99.90
36446;DHT22;22472;50.848;-1.216;2022-08-18T14:28:15;27.80;99.90
36446;DHT22;22472;50.848;-1.216;2022-08-18T14:30:45;27.30;99.90
36446;DHT22;22472;50.848;-1.216;2022-08-18T14:33:12;27.50;99.90
36446;DHT22;22472;50.848;-1.216;2022-08-18T14:35:42;27.40;99.90
36446;DHT22;22472;50.848;-1.216;2022-08-18T14:38:09;27.40;99.90
36446;DHT22;22472;50.848;-1.216;2022-08-18T14:40:38;27.60;99.90
36446;DHT22;22472;50.848;-1.216;2022-08-18T14:43:06;27.50;99.90
36446;DHT22;22472;50.848;-1.216;2022-08-18T14:45:33;28.00;99.90
36446;DHT22;22472;50.848;-1.216;2022-08-18T14:48:02;28.00;99.90
36446;DHT22;22472;50.848;-1.216;2022-08-18T14:50:29;27.80;99.90
36446;DHT22;22472;50.848;-1.216;2022-08-18T14:52:56;28.10;99.90
36446;DHT22;22472;50.848;-1.216;2022-08-18T14:55:23;28.50;99.90
36446;DHT22;22472;50.848;-1.216;2022-08-18T14:57:50;28.20;99.90
36446;DHT22;22472;50.848;-1.216;2022-08-18T15:00:18;28.40;99.90
36446;DHT22;22472;50.848;-1.216;2022-08-18T15:02:46;28.10;99.90
36446;DHT22;22472;50.848;-1.216;2022-08-18T15:05:16;27.90;99.90
36446;DHT22;22472;50.848;-1.216;2022-08-18T15:07:43;27.60;99.90
36446;DHT22;22472;50.848;-1.216;2022-08-18T15:10:12;27.60;99.90
36446;DHT22;22472;50.848;-1.216;2022-08-18T15:12:40;27.80;99.90
36446;DHT22;22472;50.848;-1.216;2022-08-18T15:15:09;27.90;99.90
36446;DHT22;22472;50.848;-1.216;2022-08-18T15:17:36;27.80;99.90
36446;DHT22;22472;50.848;-1.216;2022-08-18T15:20:05;27.60;99.90
36446;DHT22;22472;50.848;-1.216;2022-08-18T15:22:38;27.60;99.90
36446;DHT22;22472;50.848;-1.216;2022-08-18T15:25:22;27.50;99.90
36446;DHT22;22472;50.848;-1.216;2022-08-18T15:28:17;27.60;99.90
36446;DHT22;22472;50.848;-1.216;2022-08-18T15:30:46;27.30;99.90
36446;DHT22;22472;50.848;-1.216;2022-08-18T15:33:14;27.10;99.90
36446;DHT22;22472;50.848;-1.216;2022-08-18T15:35:42;27.00;99.90
36446;DHT22;22472;50.848;-1.216;2022-08-18T15:38:11;26.90;99.90
36446;DHT22;22472;50.848;-1.216;2022-08-18T15:40:47;26.50;99.90
36446;DHT22;22472;50.848;-1.216;2022-08-18T15:43:14;26.30;99.90
36446;DHT22;22472;50.848;-1.216;2022-08-18T15:45:43;26.50;99.90
36446;DHT22;22472;50.848;-1.216;2022-08-18T15:48:12;26.60;99.90
36446;DHT22;22472;50.848;-1.216;2022-08-18T15:50:39;26.50;99.90
36446;DHT22;22472;50.848;-1.216;2022-08-18T15:53:07;26.20;99.90
36446;DHT22;22472;50.848;-1.216;2022-08-18T15:55:39;26.10;99.90
36446;DHT22;22472;50.848;-1.216;2022-08-18T15:58:06;26.20;99.90
36446;DHT22;22472;50.848;-1.216;2022-08-18T16:00:33;26.00;99.90
36446;DHT22;22472;50.848;-1.216;2022-08-18T16:03:03;26.10;99.90